sensor_id;sensor_type;location;lat;lon;timestamp;pressure;altitude;pressure_sealevel;temperature;humidity
40205;BME280;26963;42.666;23.366;2023-07-13T00:02:06;95167.19;;;25.59;41.72
40205;BME280;26963;42.666;23.366;2023-07-13T00:04:31;95193.88;;;25.76;41.74
40205;BME280;26963;42.666;23.366;2023-07-13T00:06:57;95187.63;;;25.76;41.61
40205;BME280;26963;42.666;23.366;2023-07-13T00:09:23;95184.09;;;25.75;42.11
40205;BME280;26963;42.666;23.366;2023-07-13T00:11:54;95157.75;;;25.49;41.64
40205;BME280;26963;42.666;23.366;2023-07-13T00:14:20;95194.66;;;25.73;42.25
40205;BME280;26963;42.666;23.366;2023-07-13T00:16:46;95198.56;;;25.72;42.46
40205;BME280;26963;42.666;23.366;2023-07-13T00:19:13;95176.59;;;25.65;42.19
40205;BME280;26963;42.666;23.366;2023-07-13T00:21:40;95106.72;;;25.22;43.00
40205;BME280;26963;42.666;23.366;2023-07-13T00:24:06;95198.97;;;25.78;43.67
40205;BME280;26963;42.666;23.366;2023-07-13T00:26:32;95192.28;;;25.64;42.84
40205;BME280;26963;42.666;23.366;2023-07-13T00:28:58;95188.31;;;25.54;43.32
40205;BME280;26963;42.666;23.366;2023-07-13T00:31:24;95185.13;;;25.45;44.36
40205;BME280;26963;42.666;23.366;2023-07-13T00:33:50;95183.50;;;25.37;44.35
40205;BME280;26963;42.666;23.366;2023-07-13T00:36:16;95133.91;;;24.94;43.83
40205;BME280;26963;42.666;23.366;2023-07-13T00:38:42;95097.78;;;24.70;43.53
40205;BME280;26963;42.666;23.366;2023-07-13T00:41:08;95198.28;;;25.25;43.95
40205;BME280;26963;42.666;23.366;2023-07-13T00:43:33;95193.94;;;25.24;44.97
40205;BME280;26963;42.666;23.366;2023-07-13T00:48:32;95191.16;;;25.13;45.17
40205;BME280;26963;42.666;23.366;2023-07-13T00:51:00;95130.66;;;24.77;45.25
40205;BME280;26963;42.666;23.366;2023-07-13T00:53:28;95149.19;;;24.95;45.78
40205;BME280;26963;42.666;23.366;2023-07-13T00:55:56;95192.34;;;25.19;45.21
40205;BME280;26963;42.666;23.366;2023-07-13T00:58:23;95188.06;;;25.18;44.50
40205;BME280;26963;42.666;23.366;2023-07-13T01:00:50;95129.16;;;24.83;44.54
40205;BME280;26963;42.666;23.366;2023-07-13T01:03:16;95127.59;;;24.86;44.64
40205;BME280;26963;42.666;23.366;2023-07-13T01:05:42;95181.75;;;25.14;44.76
40205;BME280;26963;42.666;23.366;2023-07-13T01:08:08;95171.13;;;25.02;45.29
40205;BME280;26963;42.666;23.366;2023-07-13T01:10:34;95172.31;;;25.08;45.51
40205;BME280;26963;42.666;23.366;2023-07-13T01:13:05;95181.34;;;25.08;45.07
40205;BME280;26963;42.666;23.366;2023-07-13T01:15:40;95183.28;;;25.08;44.45
40205;BME280;26963;42.666;23.366;2023-07-13T01:18:13;95181.72;;;25.07;44.68
40205;BME280;26963;42.666;23.366;2023-07-13T01:20:40;95179.72;;;25.04;44.39
40205;BME280;26963;42.666;23.366;2023-07-13T01:23:10;95174.69;;;25.06;44.53
40205;BME280;26963;42.666;23.366;2023-07-13T01:25:37;95177.78;;;25.08;45.04
40205;BME280;26963;42.666;23.366;2023-07-13T01:28:05;95171.53;;;25.04;44.22
40205;BME280;26963;42.666;23.366;2023-07-13T01:30:30;95171.41;;;24.89;44.85
40205;BME280;26963;42.666;23.366;2023-07-13T01:32:57;95137.63;;;24.67;44.82
40205;BME280;26963;42.666;23.366;2023-07-13T01:35:23;95176.84;;;24.82;44.63
40205;BME280;26963;42.666;23.366;2023-07-13T01:37:51;95163.50;;;24.77;44.32
40205;BME280;26963;42.666;23.366;2023-07-13T01:40:16;95174.88;;;24.79;44.19
40205;BME280;26963;42.666;23.366;2023-07-13T01:42:42;95157.88;;;24.63;44.37
40205;BME280;26963;42.666;23.366;2023-07-13T01:45:07;95172.78;;;24.65;44.15
40205;BME280;26963;42.666;23.366;2023-07-13T01:47:33;95177.16;;;24.73;44.19
40205;BME280;26963;42.666;23.366;2023-07-13T01:49:58;95157.16;;;24.66;44.11
40205;BME280;26963;42.666;23.366;2023-07-13T01:52:24;95174.44;;;24.77;44.06
40205;BME280;26963;42.666;23.366;2023-07-13T01:54:50;95158.31;;;24.65;43.84
40205;BME280;26963;42.666;23.366;2023-07-13T01:57:15;95163.44;;;24.70;43.93
40205;BME280;26963;42.666;23.366;2023-07-13T01:59:41;95117.84;;;24.40;43.65
40205;BME280;26963;42.666;23.366;2023-07-13T02:02:06;95144.53;;;24.54;43.37
40205;BME280;26963;42.666;23.366;2023-07-13T02:04:32;95177.47;;;24.65;43.96
40205;BME280;26963;42.666;23.366;2023-07-13T02:06:58;95172.56;;;24.43;44.01
40205;BME280;26963;42.666;23.366;2023-07-13T02:09:24;95195.28;;;24.51;43.86
40205;BME280;26963;42.666;23.366;2023-07-13T02:11:49;95191.31;;;24.45;44.17
40205;BME280;26963;42.666;23.366;2023-07-13T02:14:15;95186.25;;;24.47;44.22
40205;BME280;26963;42.666;23.366;2023-07-13T02:16:41;95169.38;;;24.38;44.07
40205;BME280;26963;42.666;23.366;2023-07-13T02:19:07;95123.63;;;23.93;44.35
40205;BME280;26963;42.666;23.366;2023-07-13T02:21:32;95183.03;;;24.38;44.48
40205;BME280;26963;42.666;23.366;2023-07-13T02:23:58;95170.13;;;24.35;44.42
40205;BME280;26963;42.666;23.366;2023-07-13T02:26:25;95176.81;;;24.41;44.56
40205;BME280;26963;42.666;23.366;2023-07-13T02:28:52;95193.25;;;24.45;45.69
40205;BME280;26963;42.666;23.366;2023-07-13T02:31:18;95181.84;;;24.35;44.97
40205;BME280;26963;42.666;23.366;2023-07-13T02:33:43;95169.59;;;24.22;45.10
40205;BME280;26963;42.666;23.366;2023-07-13T02:36:09;95136.28;;;24.09;44.84
40205;BME280;26963;42.666;23.366;2023-07-13T02:38:35;95172.38;;;24.25;45.08
40205;BME280;26963;42.666;23.366;2023-07-13T02:41:06;95151.97;;;24.16;44.48
40205;BME280;26963;42.666;23.366;2023-07-13T02:43:32;95199.06;;;24.39;45.36
40205;BME280;26963;42.666;23.366;2023-07-13T02:45:59;95172.22;;;24.11;44.84
40205;BME280;26963;42.666;23.366;2023-07-13T02:48:29;95191.94;;;24.27;45.22
40205;BME280;26963;42.666;23.366;2023-07-13T02:50:55;95088.22;;;23.70;44.93
40205;BME280;26963;42.666;23.366;2023-07-13T02:53:21;95155.00;;;24.07;45.73
40205;BME280;26963;42.666;23.366;2023-07-13T02:55:46;95201.75;;;24.36;45.09
40205;BME280;26963;42.666;23.366;2023-07-13T02:58:13;95138.53;;;24.00;44.94
40205;BME280;26963;42.666;23.366;2023-07-13T03:00:42;95143.56;;;23.98;44.89
40205;BME280;26963;42.666;23.366;2023-07-13T03:03:08;95172.97;;;24.08;44.91
40205;BME280;26963;42.666;23.366;2023-07-13T03:05:34;95198.13;;;24.24;44.82
40205;BME280;26963;42.666;23.366;2023-07-13T03:07:59;95150.81;;;23.86;44.52
40205;BME280;26963;42.666;23.366;2023-07-13T03:10:25;95161.13;;;23.97;45.36
40205;BME280;26963;42.666;23.366;2023-07-13T03:12:50;95202.78;;;24.20;45.86
40205;BME280;26963;42.666;23.366;2023-07-13T03:15:16;95144.97;;;23.84;46.06
40205;BME280;26963;42.666;23.366;2023-07-13T03:17:41;95193.28;;;24.10;46.56
40205;BME280;26963;42.666;23.366;2023-07-13T03:20:08;95184.75;;;24.12;46.82
40205;BME280;26963;42.666;23.366;2023-07-13T03:22:33;95202.88;;;24.27;46.69
40205;BME280;26963;42.666;23.366;2023-07-13T03:24:59;95200.91;;;24.28;46.89
40205;BME280;26963;42.666;23.366;2023-07-13T03:27:25;95149.38;;;23.92;47.58
40205;BME280;26963;42.666;23.366;2023-07-13T03:29:50;95212.97;;;24.23;48.63
40205;BME280;26963;42.666;23.366;2023-07-13T03:32:16;95205.50;;;24.20;48.97
40205;BME280;26963;42.666;23.366;2023-07-13T03:34:41;95214.63;;;24.32;47.93
40205;BME280;26963;42.666;23.366;2023-07-13T03:37:07;95212.31;;;24.34;48.30
40205;BME280;26963;42.666;23.366;2023-07-13T03:39:32;95139.13;;;23.86;48.49
40205;BME280;26963;42.666;23.366;2023-07-13T03:41:58;95217.91;;;24.48;47.94
40205;BME280;26963;42.666;23.366;2023-07-13T03:44:24;95204.69;;;24.54;47.95
40205;BME280;26963;42.666;23.366;2023-07-13T03:46:49;95212.59;;;24.63;48.57
40205;BME280;26963;42.666;23.366;2023-07-13T03:49:15;95208.38;;;24.69;48.83
40205;BME280;26963;42.666;23.366;2023-07-13T03:51:40;95201.78;;;24.73;48.43
40205;BME280;26963;42.666;23.366;2023-07-13T03:54:06;95062.66;;;23.89;47.81
40205;BME280;26963;42.666;23.366;2023-07-13T03:56:31;95166.50;;;24.65;47.37
40205;BME280;26963;42.666;23.366;2023-07-13T03:58:58;95176.03;;;24.78;46.80
40205;BME280;26963;42.666;23.366;2023-07-13T04:01:24;95198.16;;;25.07;46.59
40205;BME280;26963;42.666;23.366;2023-07-13T04:03:50;95145.19;;;24.85;46.83
40205;BME280;26963;42.666;23.366;2023-07-13T04:06:28;95195.16;;;25.27;46.70
40205;BME280;26963;42.666;23.366;2023-07-13T04:08:57;95206.22;;;25.41;46.95
40205;BME280;26963;42.666;23.366;2023-07-13T04:11:25;95197.69;;;25.53;46.79
40205;BME280;26963;42.666;23.366;2023-07-13T04:13:51;95180.09;;;25.54;46.54
40205;BME280;26963;42.666;23.366;2023-07-13T04:16:17;95158.53;;;25.49;46.11
40205;BME280;26963;42.666;23.366;2023-07-13T04:18:45;95156.25;;;25.66;45.22
40205;BME280;26963;42.666;23.366;2023-07-13T04:21:11;95206.63;;;26.24;44.17
40205;BME280;26963;42.666;23.366;2023-07-13T04:23:38;95207.50;;;26.53;43.96
40205;BME280;26963;42.666;23.366;2023-07-13T04:26:04;95153.38;;;26.43;43.33
40205;BME280;26963;42.666;23.366;2023-07-13T04:28:30;95214.22;;;27.25;42.09
40205;BME280;26963;42.666;23.366;2023-07-13T04:30:56;95215.38;;;27.67;41.63
40205;BME280;26963;42.666;23.366;2023-07-13T04:33:22;95217.59;;;28.08;40.85
40205;BME280;26963;42.666;23.366;2023-07-13T04:35:50;95206.56;;;28.23;40.00
40205;BME280;26963;42.666;23.366;2023-07-13T04:38:20;95218.91;;;28.63;39.74
40205;BME280;26963;42.666;23.366;2023-07-13T04:40:47;95216.25;;;29.09;39.01
40205;BME280;26963;42.666;23.366;2023-07-13T04:43:13;95212.75;;;29.50;37.91
40205;BME280;26963;42.666;23.366;2023-07-13T04:45:38;95181.88;;;29.66;36.69
40205;BME280;26963;42.666;23.366;2023-07-13T04:48:04;95225.00;;;30.53;34.73
40205;BME280;26963;42.666;23.366;2023-07-13T04:50:30;95223.28;;;31.17;33.54
40205;BME280;26963;42.666;23.366;2023-07-13T04:52:55;95194.78;;;31.24;32.64
40205;BME280;26963;42.666;23.366;2023-07-13T04:55:21;95223.78;;;30.85;34.14
40205;BME280;26963;42.666;23.366;2023-07-13T04:57:46;95240.59;;;30.05;35.69
40205;BME280;26963;42.666;23.366;2023-07-13T05:00:13;95206.69;;;29.21;37.09
40205;BME280;26963;42.666;23.366;2023-07-13T05:02:39;95245.41;;;29.03;37.71
40205;BME280;26963;42.666;23.366;2023-07-13T05:05:06;95234.25;;;28.61;39.26
40205;BME280;26963;42.666;23.366;2023-07-13T05:07:32;95195.63;;;28.01;40.20
40205;BME280;26963;42.666;23.366;2023-07-13T05:09:59;95245.91;;;28.05;39.68
40205;BME280;26963;42.666;23.366;2023-07-13T05:12:26;95244.78;;;27.88;39.92
40205;BME280;26963;42.666;23.366;2023-07-13T05:14:51;95233.03;;;27.59;40.22
40205;BME280;26963;42.666;23.366;2023-07-13T05:17:17;95248.00;;;27.50;40.45
40205;BME280;26963;42.666;23.366;2023-07-13T05:19:43;95260.16;;;27.42;41.20
40205;BME280;26963;42.666;23.366;2023-07-13T05:22:09;95255.44;;;27.32;41.58
40205;BME280;26963;42.666;23.366;2023-07-13T05:24:34;95257.38;;;27.21;41.39
40205;BME280;26963;42.666;23.366;2023-07-13T05:27:00;95245.25;;;27.07;42.14
40205;BME280;26963;42.666;23.366;2023-07-13T05:29:26;95131.81;;;26.31;42.27
40205;BME280;26963;42.666;23.366;2023-07-13T05:31:51;95250.72;;;27.07;42.95
40205;BME280;26963;42.666;23.366;2023-07-13T05:34:17;95238.97;;;26.96;42.89
40205;BME280;26963;42.666;23.366;2023-07-13T05:36:42;95205.16;;;26.66;42.57
40205;BME280;26963;42.666;23.366;2023-07-13T05:39:08;95256.97;;;27.00;42.14
40205;BME280;26963;42.666;23.366;2023-07-13T05:41:35;95258.97;;;27.00;42.56
40205;BME280;26963;42.666;23.366;2023-07-13T05:44:01;95252.28;;;26.94;42.23
40205;BME280;26963;42.666;23.366;2023-07-13T05:46:27;95143.16;;;26.26;42.67
40205;BME280;26963;42.666;23.366;2023-07-13T05:48:52;95257.38;;;27.02;42.84
40205;BME280;26963;42.666;23.366;2023-07-13T05:51:18;95239.31;;;26.94;41.82
40205;BME280;26963;42.666;23.366;2023-07-13T05:53:44;95258.94;;;27.14;41.60
40205;BME280;26963;42.666;23.366;2023-07-13T05:56:09;95199.72;;;26.84;42.00
40205;BME280;26963;42.666;23.366;2023-07-13T05:58:35;95249.94;;;27.17;41.71
40205;BME280;26963;42.666;23.366;2023-07-13T06:01:01;95261.31;;;27.34;41.88
40205;BME280;26963;42.666;23.366;2023-07-13T06:03:27;95200.53;;;26.96;41.23
40205;BME280;26963;42.666;23.366;2023-07-13T06:05:52;95245.25;;;27.40;41.20
40205;BME280;26963;42.666;23.366;2023-07-13T06:08:18;95152.66;;;26.90;40.13
40205;BME280;26963;42.666;23.366;2023-07-13T06:10:43;95227.97;;;27.46;40.39
40205;BME280;26963;42.666;23.366;2023-07-13T06:13:09;95238.19;;;27.49;40.74
40205;BME280;26963;42.666;23.366;2023-07-13T06:15:34;95211.50;;;27.39;40.74
40205;BME280;26963;42.666;23.366;2023-07-13T06:18:00;95213.44;;;27.46;40.90
40205;BME280;26963;42.666;23.366;2023-07-13T06:20:26;95259.31;;;27.81;40.65
40205;BME280;26963;42.666;23.366;2023-07-13T06:22:51;95215.38;;;27.63;40.98
40205;BME280;26963;42.666;23.366;2023-07-13T06:25:17;95254.16;;;28.12;38.93
40205;BME280;26963;42.666;23.366;2023-07-13T06:27:43;95256.41;;;28.32;39.22
40205;BME280;26963;42.666;23.366;2023-07-13T06:30:09;95228.47;;;28.41;38.47
40205;BME280;26963;42.666;23.366;2023-07-13T06:32:35;95169.03;;;29.87;34.58
40205;BME280;26963;42.666;23.366;2023-07-13T06:35:01;95228.81;;;33.18;30.03
40205;BME280;26963;42.666;23.366;2023-07-13T06:37:26;95229.00;;;35.14;26.83
40205;BME280;26963;42.666;23.366;2023-07-13T06:39:52;95248.41;;;36.67;25.15
40205;BME280;26963;42.666;23.366;2023-07-13T06:42:17;95247.28;;;37.87;23.52
40205;BME280;26963;42.666;23.366;2023-07-13T06:44:43;95247.97;;;39.04;22.35
40205;BME280;26963;42.666;23.366;2023-07-13T06:47:08;95225.03;;;39.82;20.79
40205;BME280;26963;42.666;23.366;2023-07-13T06:49:34;95241.16;;;40.71;20.13
40205;BME280;26963;42.666;23.366;2023-07-13T06:51:59;95228.88;;;41.34;20.19
40205;BME280;26963;42.666;23.366;2023-07-13T06:54:25;95233.34;;;41.82;18.82
40205;BME280;26963;42.666;23.366;2023-07-13T06:56:50;95227.44;;;42.01;18.42
40205;BME280;26963;42.666;23.366;2023-07-13T06:59:16;95245.75;;;42.17;18.36
40205;BME280;26963;42.666;23.366;2023-07-13T07:01:41;95200.22;;;42.13;18.34
40205;BME280;26963;42.666;23.366;2023-07-13T07:04:07;95191.84;;;42.45;18.24
40205;BME280;26963;42.666;23.366;2023-07-13T07:06:32;95243.50;;;43.06;18.11
40205;BME280;26963;42.666;23.366;2023-07-13T07:08:57;95235.78;;;43.38;17.75
40205;BME280;26963;42.666;23.366;2023-07-13T07:11:25;95234.09;;;43.58;17.13
40205;BME280;26963;42.666;23.366;2023-07-13T07:13:51;95240.03;;;43.65;17.30
40205;BME280;26963;42.666;23.366;2023-07-13T07:16:18;95240.97;;;44.06;17.28
40205;BME280;26963;42.666;23.366;2023-07-13T07:18:45;95215.38;;;44.15;16.79
40205;BME280;26963;42.666;23.366;2023-07-13T07:21:11;95246.97;;;44.47;16.69
40205;BME280;26963;42.666;23.366;2023-07-13T07:23:37;95198.03;;;44.51;15.88
40205;BME280;26963;42.666;23.366;2023-07-13T07:26:03;95206.22;;;44.88;16.17
40205;BME280;26963;42.666;23.366;2023-07-13T07:28:28;95231.56;;;45.39;15.98
40205;BME280;26963;42.666;23.366;2023-07-13T07:30:56;95228.97;;;45.41;15.73
40205;BME280;26963;42.666;23.366;2023-07-13T07:33:22;95231.22;;;45.66;15.34
40205;BME280;26963;42.666;23.366;2023-07-13T07:35:48;95230.66;;;45.84;15.33
40205;BME280;26963;42.666;23.366;2023-07-13T07:38:14;95217.03;;;45.83;14.90
40205;BME280;26963;42.666;23.366;2023-07-13T07:40:40;95230.63;;;45.90;15.60
40205;BME280;26963;42.666;23.366;2023-07-13T07:43:10;95228.22;;;46.11;15.25
40205;BME280;26963;42.666;23.366;2023-07-13T07:45:36;95183.31;;;46.02;14.96
40205;BME280;26963;42.666;23.366;2023-07-13T07:48:03;95217.53;;;46.40;14.53
40205;BME280;26963;42.666;23.366;2023-07-13T07:50:30;95221.69;;;46.69;14.65
40205;BME280;26963;42.666;23.366;2023-07-13T07:52:56;95171.91;;;46.49;14.45
40205;BME280;26963;42.666;23.366;2023-07-13T07:55:22;95211.81;;;46.82;14.33
40205;BME280;26963;42.666;23.366;2023-07-13T07:57:48;95192.44;;;46.92;14.48
40205;BME280;26963;42.666;23.366;2023-07-13T08:00:15;95208.16;;;47.17;13.84
40205;BME280;26963;42.666;23.366;2023-07-13T08:02:42;95206.28;;;47.26;13.67
40205;BME280;26963;42.666;23.366;2023-07-13T08:05:08;95194.88;;;47.31;13.70
40205;BME280;26963;42.666;23.366;2023-07-13T08:07:37;95167.97;;;47.19;13.84
40205;BME280;26963;42.666;23.366;2023-07-13T08:10:04;95191.19;;;47.36;13.43
40205;BME280;26963;42.666;23.366;2023-07-13T08:12:29;95190.38;;;47.42;13.84
40205;BME280;26963;42.666;23.366;2023-07-13T08:14:55;95186.56;;;47.14;13.70
40205;BME280;26963;42.666;23.366;2023-07-13T08:17:23;95163.06;;;47.19;13.44
40205;BME280;26963;42.666;23.366;2023-07-13T08:19:50;95188.69;;;47.08;13.50
40205;BME280;26963;42.666;23.366;2023-07-13T08:22:16;95151.88;;;46.11;14.09
40205;BME280;26963;42.666;23.366;2023-07-13T08:24:41;95177.31;;;46.17;14.28
40205;BME280;26963;42.666;23.366;2023-07-13T08:27:10;95152.94;;;46.44;14.23
40205;BME280;26963;42.666;23.366;2023-07-13T08:29:37;95175.31;;;46.78;13.99
40205;BME280;26963;42.666;23.366;2023-07-13T08:32:05;95141.72;;;46.33;14.02
40205;BME280;26963;42.666;23.366;2023-07-13T08:34:35;95137.56;;;46.70;14.00
40205;BME280;26963;42.666;23.366;2023-07-13T08:37:00;95174.53;;;47.08;13.82
40205;BME280;26963;42.666;23.366;2023-07-13T08:39:26;95169.19;;;46.99;14.20
40205;BME280;26963;42.666;23.366;2023-07-13T08:41:58;95119.69;;;46.81;13.99
40205;BME280;26963;42.666;23.366;2023-07-13T08:44:34;95135.75;;;47.22;13.64
40205;BME280;26963;42.666;23.366;2023-07-13T08:47:04;95169.13;;;47.73;14.23
40205;BME280;26963;42.666;23.366;2023-07-13T08:49:31;95096.44;;;47.57;13.73
40205;BME280;26963;42.666;23.366;2023-07-13T08:52:02;95162.03;;;48.24;13.55
40205;BME280;26963;42.666;23.366;2023-07-13T08:54:38;95162.63;;;47.97;13.23
40205;BME280;26963;42.666;23.366;2023-07-13T08:57:17;95170.81;;;47.38;13.48
40205;BME280;26963;42.666;23.366;2023-07-13T08:59:45;95146.78;;;46.76;13.89
40205;BME280;26963;42.666;23.366;2023-07-13T09:02:32;95176.38;;;46.75;14.45
40205;BME280;26963;42.666;23.366;2023-07-13T09:05:14;95184.78;;;47.11;14.46
40205;BME280;26963;42.666;23.366;2023-07-13T09:08:04;95184.78;;;47.36;14.11
40205;BME280;26963;42.666;23.366;2023-07-13T09:11:00;95159.50;;;47.38;14.28
40205;BME280;26963;42.666;23.366;2023-07-13T09:13:44;95194.66;;;47.73;13.65
40205;BME280;26963;42.666;23.366;2023-07-13T09:16:11;95197.13;;;47.82;13.62
40205;BME280;26963;42.666;23.366;2023-07-13T09:18:49;95196.44;;;47.76;13.58
40205;BME280;26963;42.666;23.366;2023-07-13T09:21:20;95191.28;;;47.75;13.88
40205;BME280;26963;42.666;23.366;2023-07-13T09:23:52;95191.13;;;47.67;13.34
40205;BME280;26963;42.666;23.366;2023-07-13T09:26:22;95193.03;;;47.34;13.81
40205;BME280;26963;42.666;23.366;2023-07-13T09:28:51;95181.84;;;46.62;14.85
40205;BME280;26963;42.666;23.366;2023-07-13T09:31:24;95180.97;;;45.47;15.17
40205;BME280;26963;42.666;23.366;2023-07-13T09:33:51;95189.75;;;44.24;16.48
40205;BME280;26963;42.666;23.366;2023-07-13T09:36:31;95190.69;;;42.89;17.68
40205;BME280;26963;42.666;23.366;2023-07-13T09:41:51;95187.16;;;40.91;19.66
40205;BME280;26963;42.666;23.366;2023-07-13T09:44:36;95188.19;;;40.14;20.94
40205;BME280;26963;42.666;23.366;2023-07-13T09:47:02;95146.44;;;39.22;21.73
40205;BME280;26963;42.666;23.366;2023-07-13T09:49:35;95175.06;;;39.08;21.96
40205;BME280;26963;42.666;23.366;2023-07-13T09:52:05;95162.28;;;38.92;22.11
40205;BME280;26963;42.666;23.366;2023-07-13T09:54:34;95150.56;;;38.69;22.26
40205;BME280;26963;42.666;23.366;2023-07-13T09:57:00;95116.88;;;38.30;22.91
40205;BME280;26963;42.666;23.366;2023-07-13T09:59:40;95118.13;;;38.10;23.38
40205;BME280;26963;42.666;23.366;2023-07-13T10:05:04;95153.56;;;37.85;25.01
40205;BME280;26963;42.666;23.366;2023-07-13T10:07:31;95138.81;;;37.48;23.94
40205;BME280;26963;42.666;23.366;2023-07-13T10:09:59;95136.44;;;37.18;24.19
40205;BME280;26963;42.666;23.366;2023-07-13T10:12:29;95139.84;;;37.13;26.07
40205;BME280;26963;42.666;23.366;2023-07-13T10:14:57;95138.59;;;37.05;25.71
40205;BME280;26963;42.666;23.366;2023-07-13T10:17:32;95135.03;;;37.04;25.74
40205;BME280;26963;42.666;23.366;2023-07-13T10:20:00;95127.56;;;37.01;25.49
40205;BME280;26963;42.666;23.366;2023-07-13T10:25:18;95143.22;;;36.89;25.00
40205;BME280;26963;42.666;23.366;2023-07-13T10:27:44;95138.56;;;36.86;25.50
40205;BME280;26963;42.666;23.366;2023-07-13T10:32:48;95115.63;;;36.42;27.03
40205;BME280;26963;42.666;23.366;2023-07-13T10:35:18;95097.75;;;36.30;25.94
40205;BME280;26963;42.666;23.366;2023-07-13T10:37:55;95111.63;;;36.20;26.29
40205;BME280;26963;42.666;23.366;2023-07-13T10:40:27;95119.03;;;36.14;27.11
40205;BME280;26963;42.666;23.366;2023-07-13T10:42:57;95066.94;;;35.70;25.61
40205;BME280;26963;42.666;23.366;2023-07-13T10:45:23;95085.31;;;35.68;22.69
40205;BME280;26963;42.666;23.366;2023-07-13T10:47:52;95105.59;;;35.90;23.62
40205;BME280;26963;42.666;23.366;2023-07-13T10:50:23;95088.25;;;35.86;22.76
40205;BME280;26963;42.666;23.366;2023-07-13T10:52:54;95081.78;;;35.89;23.85
40205;BME280;26963;42.666;23.366;2023-07-13T10:58:21;95081.50;;;35.97;22.98
40205;BME280;26963;42.666;23.366;2023-07-13T11:03:37;95075.63;;;35.95;20.53
40205;BME280;26963;42.666;23.366;2023-07-13T11:11:33;95063.38;;;35.92;19.45
40205;BME280;26963;42.666;23.366;2023-07-13T11:13:59;95055.72;;;35.83;20.65
40205;BME280;26963;42.666;23.366;2023-07-13T11:16:46;95023.31;;;35.67;20.48
40205;BME280;26963;42.666;23.366;2023-07-13T11:27:30;95051.16;;;35.45;20.65
40205;BME280;26963;42.666;23.366;2023-07-13T11:33:10;94993.75;;;35.16;21.66
40205;BME280;26963;42.666;23.366;2023-07-13T11:40:54;95033.50;;;35.39;22.29
40205;BME280;26963;42.666;23.366;2023-07-13T11:43:21;95031.81;;;35.41;22.53
40205;BME280;26963;42.666;23.366;2023-07-13T11:45:49;95036.03;;;35.46;22.63
40205;BME280;26963;42.666;23.366;2023-07-13T11:48:33;95026.38;;;35.38;22.89
40205;BME280;26963;42.666;23.366;2023-07-13T11:51:04;95027.22;;;35.48;22.20
40205;BME280;26963;42.666;23.366;2023-07-13T11:53:40;95031.38;;;35.43;22.10
40205;BME280;26963;42.666;23.366;2023-07-13T11:56:08;95015.06;;;35.32;21.66
40205;BME280;26963;42.666;23.366;2023-07-13T11:58:34;95025.22;;;35.48;22.26
40205;BME280;26963;42.666;23.366;2023-07-13T12:01:04;94921.50;;;34.81;21.86
40205;BME280;26963;42.666;23.366;2023-07-13T12:03:32;95017.78;;;35.45;22.47
40205;BME280;26963;42.666;23.366;2023-07-13T12:06:05;94962.22;;;35.10;22.69
40205;BME280;26963;42.666;23.366;2023-07-13T12:08:31;95010.03;;;35.40;22.83
40205;BME280;26963;42.666;23.366;2023-07-13T12:11:16;95007.94;;;35.31;22.62
40205;BME280;26963;42.666;23.366;2023-07-13T12:13:43;95000.34;;;35.32;22.25
40205;BME280;26963;42.666;23.366;2023-07-13T12:16:25;95009.03;;;35.34;22.90
40205;BME280;26963;42.666;23.366;2023-07-13T12:18:53;94994.16;;;35.27;23.65
40205;BME280;26963;42.666;23.366;2023-07-13T12:21:41;94990.72;;;35.23;22.62
40205;BME280;26963;42.666;23.366;2023-07-13T12:24:14;94979.28;;;35.21;23.29
40205;BME280;26963;42.666;23.366;2023-07-13T12:26:40;94984.97;;;35.18;21.90
40205;BME280;26963;42.666;23.366;2023-07-13T12:29:16;94975.13;;;35.04;22.36
40205;BME280;26963;42.666;23.366;2023-07-13T12:31:44;94974.56;;;35.09;21.98
40205;BME280;26963;42.666;23.366;2023-07-13T12:34:12;94954.28;;;34.99;23.13
40205;BME280;26963;42.666;23.366;2023-07-13T12:36:46;94934.50;;;34.84;22.99
40205;BME280;26963;42.666;23.366;2023-07-13T12:39:17;94960.13;;;35.01;23.00
40205;BME280;26963;42.666;23.366;2023-07-13T12:41:50;94959.38;;;35.01;22.82
40205;BME280;26963;42.666;23.366;2023-07-13T12:44:28;94962.47;;;35.03;23.07
40205;BME280;26963;42.666;23.366;2023-07-13T12:47:04;94937.28;;;34.84;23.12
40205;BME280;26963;42.666;23.366;2023-07-13T12:49:32;94952.59;;;35.02;24.05
40205;BME280;26963;42.666;23.366;2023-07-13T12:52:04;94956.06;;;34.93;23.43
40205;BME280;26963;42.666;23.366;2023-07-13T12:54:30;94931.75;;;34.84;24.22
40205;BME280;26963;42.666;23.366;2023-07-13T12:56:58;94935.19;;;34.88;23.26
40205;BME280;26963;42.666;23.366;2023-07-13T12:59:27;94944.75;;;34.87;23.24
40205;BME280;26963;42.666;23.366;2023-07-13T13:01:54;94913.94;;;34.59;23.73
40205;BME280;26963;42.666;23.366;2023-07-13T13:04:20;94932.63;;;34.81;24.67
40205;BME280;26963;42.666;23.366;2023-07-13T13:06:47;94937.88;;;34.79;23.95
40205;BME280;26963;42.666;23.366;2023-07-13T13:09:15;94923.13;;;34.69;24.37
40205;BME280;26963;42.666;23.366;2023-07-13T13:11:41;94932.44;;;34.75;24.96
40205;BME280;26963;42.666;23.366;2023-07-13T13:14:07;94938.38;;;34.65;24.71
40205;BME280;26963;42.666;23.366;2023-07-13T13:16:35;94927.25;;;34.65;24.30
40205;BME280;26963;42.666;23.366;2023-07-13T13:21:37;94927.13;;;34.68;24.70
40205;BME280;26963;42.666;23.366;2023-07-13T13:24:10;94931.53;;;34.56;25.20
40205;BME280;26963;42.666;23.366;2023-07-13T13:26:36;94931.41;;;34.60;23.77
40205;BME280;26963;42.666;23.366;2023-07-13T13:29:13;94924.81;;;34.67;23.93
40205;BME280;26963;42.666;23.366;2023-07-13T13:31:39;94920.47;;;34.66;24.40
40205;BME280;26963;42.666;23.366;2023-07-13T13:34:09;94915.38;;;34.64;25.00
40205;BME280;26963;42.666;23.366;2023-07-13T13:36:35;94874.38;;;34.33;25.07
40205;BME280;26963;42.666;23.366;2023-07-13T13:39:01;94890.53;;;34.47;22.89